Prairie Lea, Texas
Current Conditions -  °F | °C
As of 1:47 PM on Thursday 23 Oct 2014 (Local Time) from KHYI Reporting Station
Scattered Clouds Scattered Clouds  
Wind Chill: 79°   Ceiling: Unl
Heat Index: 80°   Visibility: 10mi
Dew Point: 59°   Wind: 5mph
Humidity: 51%   Direction: 130°SE
Pressure: 30.11"   Gusts: NA
Location:  29.73°N, 97.75°W
Report Text: KHYI 231847Z 13004KT 10SM SCT100 26/15 A3011
Loading
Personal Weather Stations






























Interactive Weather Map
Tropical Storm Tracking
New forecast layout! Learn more

10-Day Weather Forecast

Advertisements
Track Severe Weather on mobile